Dodge Center, MN (55927)

12:00 PM CDT on March 29, 2015 (GMT -0500)
Metal Bird Media Photography | | Change Station
CLOSE
Current Station
Personal Weather Station
Location: Kasson, MN
Elevation: 1257 ft
Nearby Weather Stations
Active Advisory: Wind Advisory Active Notice: Public Information Statement

Elev 1257 ft 44.03 °N, 92.78 °W | Updated 13 seconds ago

Overcast
Overcast
43.5 °F
Feels Like 36 °F
N
17.7
Wind Variable Wind from West
Gusts 19.9 mph

Today
High -- | Low -- °F
--% Chance of Precip.
Yesterday
High -- | Low -- °F
Precip. -- in
6:58 AM 7:34 PM
Waxing Gibbous, 72% visible
Pressure 29.63 in
Visibility 10.0 miles
Clouds Mostly Cloudy 2500 ft
Overcast 3200 ft
Windchill 36 °F
Dew Point 27 °F
Humidity 51%
Rainfall 0.00 in
Snow Depth Not available.
UV 2 out of 12
Pollen 4.80 out of 12
Air Quality Not available.
Flu Activity Not available.
METAR KTOB 291653Z AUTO 27021G26KT 10SM BKN025 OVC032 07/04 A2963 RMK AO2

More Conditions Fewer Conditions

Pressure 29.63 in
Visibility 10.0 miles
Clouds Mostly Cloudy 2500 ft
Overcast 3200 ft
Windchill 36 °F
Dew Point 27 °F
Humidity 51%
Rainfall 0.00 in
Snow Depth Not available.
UV 2 out of 12
Pollen 4.80 out of 12
Air Quality Not available.
Flu Activity Not available.
METAR KTOB 291653Z AUTO 27021G26KT 10SM BKN025 OVC032 07/04 A2963 RMK AO2

More Conditions Fewer Conditions

10-Day Weather Forecast

Almanac

Astronomy

Mar. 29, 2015 Rise Set
Actual Time
Civil Twilight
Nautical Twilight
Astronomical Twilight
Moon
Length of Visible Light
Length of Day
Tomorrow will be .
, % of the Moon is Illuminated

Today's Extremes

State Highs State Lows

Community

WunderPhotos

Upload Photos

1,809,299 photos uploaded!

WunderBlogs® & News

Nearby

Air Quality

  Air Quality AQ Index Pollutant
Not available.

Snow Depth

Station Depth Elevation

Earthquake Activity

City Distance Mag. Time & Date
Minimum magnitude displayed is 2.5.

Coastal Water Temperatures

Place Temperature

Stations

Nearby Weather Stations

Station Location Temp. Windchill Dew Point Humidity Wind Precip. Elev Updated Type
                   
Wind Advisory
Statement as of 11:36 AM CDT on March 29, 2015

... Wind Advisory remains in effect until 6 PM CDT this evening...

* strong winds will be seen this afternoon

* winds of 20 to 30 mph with gusts up to 45 mph can be expected.
Southwest winds will shift to west by 1 PM... and northwest by 4 PM.

* High profile vehicles could have difficulty traveling due to
the strong winds.

Precautionary/preparedness actions...

A Wind Advisory means that sustained winds of 30 mph or higher...
or gusts over 45 mph... are expected. Winds this strong can make
driving difficult... especially for high profile vehicles. Use
extra caution.



Boyne